Marko Junuzovic

Olheiro-Chefe - Grodig
25 Fev 2027
Quinta-feira
Processo

Personalidade

Adaptabilidade (8) Ambição (11) Controvérsia (15) Lealdade (16) Pressão (3) Profissionalismo (10) Espírito Esportivo (16) Temperamento (13)

Perfil

Estilo de Treinamento Democrático
Licença Nacional B
Determinação 5
Gestão de Pessoas 6
Motivação 9
Disciplina 8
Satisfação no Trabalho
50%
Fadiga
0%
Função Olheiro-Chefe
Salário 57.9K p/s
Contrato 14.03.2030

Desempenho

Comportamento Normal
Eficácia do Treinamento
13%
Desenvolvimento do Jogador
30%
Prevenção de Lesões
15%
Implementação Tática
20%

Eventos Recentes

Avaliou um jogador agora
Participou de uma reunião de recrutamento agora
Participou de uma reunião de recrutamento agora
Participou de uma reunião de recrutamento agora
Avaliou um jogador 7d atrás
Avaliou um jogador 7d atrás
Avaliou um jogador 7d atrás
Avaliou um jogador 7d atrás

Monitorando agora

112
Jogador Clube Status Habilidade Confiança Observado Última observação Último voto
Mehdi Dorval Catanzaro Ativo 133 / 135 40% 2 23.02.2027 -
Radinio Balker Huddersfield Town Ativo 130 / 124 40% 1 23.02.2027 -
Ethan Pye Stockport County Ativo 103 / 112 40% 2 22.02.2027 -
Denver Hume Fleetwood Town Ativo 100 / 99 40% 1 22.02.2027 -
Will Fish Cardiff City Ativo 127 / 119 40% 1 21.02.2027 -
Álex Valle Como Ativo 147 / 143 40% 2 19.02.2027 -
Isaac Kyereh Liberty Professionals Ativo 116 / 107 40% 1 19.02.2027 -
Philipp Sander Borussia Mönchengladbach Ativo 127 / 129 40% 3 17.02.2027 -
Mamadou Sangaré Brentford Ativo 133 / 136 40% 1 17.02.2027 -
Stephen Eustáquio Swansea City Ativo 134 / 142 40% 2 16.02.2027 -
James Morris Leyton Orient Ativo 109 / 122 40% 1 16.02.2027 -
Williams Manyama SuperSport United Ativo 99 / 118 40% 9 15.02.2027 -
Erick Hlatshwayo Ajax Cape Town Ativo 125 / 109 40% 1 15.02.2027 -
Lloyd Jones Charlton Athletic Ativo 121 / 125 40% 1 13.02.2027 -
James Justin Leeds United Ativo 122 / 131 40% 1 13.02.2027 -
Jayden Sweeney Grimsby Town Ativo 96 / 102 40% 1 11.02.2027 -
Gift Ngcobo Ajax Cape Town Ativo 108 / 116 40% 1 09.02.2027 -
Frazer Blake-Tracy Mansfield Town Ativo 87 / 103 40% 1 05.02.2027 -
Lindon Emërllahu Polissia Ativo 111 / 135 40% 1 04.02.2027 -
Lorenzo Villa Cosenza Ativo 100 / 101 40% 1 04.02.2027 -
Ilir Krasniqi Polissia Ativo 125 / 103 40% 1 01.02.2027 -
Thabang Matuludi Polokwane City Ativo 132 / 118 40% 1 01.02.2027 -
Siyanda Ndlovu Bloemfontein Celtic Ativo 99 / 109 40% 2 19.01.2027 -
Thomas Junuzovic Mattersburg Ativo 93 / 93 41% 1 01.01.2027 -
Ibrahim Maza Bayer Leverkusen Ativo 134 / 155 40% 4 31.12.2026 -
Tristan Crama Millwall Ativo 118 / 126 40% 1 31.12.2026 -
Jordan Lotomba Bloemfontein Celtic Ativo 126 / 134 40% 3 30.12.2026 -
Happy Mashiane Bloemfontein Celtic Ativo 108 / 111 40% 2 30.12.2026 -
Xeber Alkain Karpaty Ativo 114 / 129 40% 2 28.12.2026 -
Keagan Mothiba SuperSport United Ativo 103 / 116 40% 4 27.12.2026 -
Joseph Wakaso Wa All Stars Ativo 120 / 116 40% 1 27.12.2026 Mais informações
Mandla Erasmus SuperSport United Ativo 115 / 123 40% 3 24.12.2026 -
Mike-Steven Bähre Altach Ativo 121 / 118 40% 3 23.12.2026 -
Antonino Gallo Lecce Ativo 134 / 130 40% 1 23.12.2026 -
Herba Guirassy Young Boys Ativo 112 / 134 40% 6 22.12.2026 -
Wandile Duba Maritzburg United Ativo 103 / 92 40% 3 22.12.2026 -
Serhiy Buletsa Oleksandriya Ativo 115 / 107 40% 1 20.12.2026 -
Khama Manyama Ajax Cape Town Ativo 125 / 98 40% 1 20.12.2026 Mais informações
Lukas Klostermann RB Leipzig Ativo 133 / 132 40% 1 16.12.2026 -
Younes Ebnoutalib Eintracht Frankfurt Ativo 127 / 125 40% 1 16.12.2026 -
Mads Pedersen FC Augsburg Ativo 116 / 119 40% 2 15.12.2026 -
Benjamin Böckle Altach Ativo 102 / 122 40% 4 13.12.2026 -
Ante Roguljić Diosgyor Ativo 118 / 120 40% 2 13.12.2026 -
Everton Bala Levski Ativo 139 / 123 40% 4 12.12.2026 -
Oswin Appollis Orlando Pirates Ativo 102 / 119 40% 2 10.12.2026 -
Benjamin Kanurić SV Ried Ativo 117 / 116 40% 2 10.12.2026 -
Bradley Cross Kaizer Chiefs Ativo 98 / 116 40% 1 07.12.2026 -
Alex Vigo Independiente Rivadavia Ativo 143 / 119 40% 1 07.12.2026 Mais informações
Libor Holík Spartak Trnava Ativo 134 / 128 40% 2 06.12.2026 -
Jan Hofmann Mattersburg Ativo 113 / 107 40% 1 06.12.2026 -
Lewis Morgan SuperSport United Ativo 120 / 125 40% 1 04.12.2026 -
Rodrigo González Aldosivi Ativo 117 / 121 40% 1 04.12.2026 -
Rogério VfL Wolfsburg Ativo 142 / 134 40% 4 03.12.2026 -
Samuel Marques Grasshopper Ativo 103 / 123 40% 1 02.12.2026 -
Samuel Adegbenro ES Setif Ativo 131 / 112 40% 1 28.11.2026 -
Ante Bajić SV Ried Ativo 117 / 104 40% 1 25.11.2026 -
Sergio Arribas Almería Ativo 131 / 137 40% 1 23.11.2026 -
Yusuf Demir Mattersburg Ativo 124 / 110 40% 1 23.11.2026 -
Zan Oblak NK Domzale Ativo 125 / 121 40% 1 22.11.2026 -
Daniel Kyerewaa Reading Ativo 114 / 102 40% 1 21.11.2026 -
George Earthy Reading Ativo 100 / 111 40% 1 21.11.2026 -
Silas Nwankwo Masr El Makasa Ativo 92 / 88 40% 1 15.11.2026 -
Donis Avdijaj Wolfsberger AC Ativo 121 / 124 40% 1 14.11.2026 -
Thalente Mbatha Orlando Pirates Ativo 111 / 105 40% 2 13.11.2026 -
Robin Fellhauer FC Augsburg Ativo 125 / 127 40% 1 13.11.2026 -
Rodrigo Bentancur Tottenham Ativo 140 / 147 40% 2 11.11.2026 -
Tim Drexler Red Bull Salzburg Ativo 112 / 118 40% 1 11.11.2026 -
Bongani Modiba Black Aces Ativo 99 / 108 40% 1 07.11.2026 -
Andreas Gruber DAC Dunajska Streda Ativo 106 / 121 40% 1 06.11.2026 -
Velemseni Ndwandwe Golden Arrows Ativo 113 / 95 40% 1 06.11.2026 -
Gabriel Jesus Barcelona Ativo 146 / 156 40% 1 05.11.2026 -
Gizo Mamageishvili Sturm Graz Ativo 108 / 131 40% 3 02.11.2026 -
Tshepang Moremi Orlando Pirates Ativo 108 / 98 40% 2 01.11.2026 -
Rahim Ibrahim Slovan Bratislava Ativo 143 / 113 40% 1 01.11.2026 -
Thabiso Monyane Kaizer Chiefs Ativo 83 / 105 40% 1 01.11.2026 -
Aljoša Matko Ujpest Ativo 95 / 126 40% 2 30.10.2026 -
Jens Petter Hauge Bodo/Glimt Ativo 132 / 153 40% 2 27.10.2026 -
Fawaaz Basadien Mamelodi Sundowns Ativo 125 / 100 40% 1 26.10.2026 -
Luka Kurtovic NK Domzale Ativo 127 / 142 40% 1 25.10.2026 -
Oscar Kabwit Luzern Ativo 121 / 116 40% 2 24.10.2026 -
Philipp Pomer SV Ried Ativo 122 / 109 40% 1 24.10.2026 -
Nduduzo Sibiya Golden Arrows Ativo 93 / 95 40% 1 23.10.2026 -
Luca Kronberger Admira Wacker Ativo 114 / 109 40% 2 22.10.2026 -
Mduduzi Shabalala Kaizer Chiefs Ativo 98 / 102 40% 1 21.10.2026 -
Sota Kawasaki Mainz 05 Ativo 121 / 117 40% 2 19.10.2026 -
Angelo Gattermayer Wolfsberger AC Ativo 107 / 123 40% 1 17.10.2026 -
Marko Brest Olimpija Ljubljana Ativo 93 / 130 40% 1 15.10.2026 -
Hassane Imourane Grasshopper Ativo 98 / 106 40% 1 14.10.2026 -
Patrick Maswanganyi Orlando Pirates Ativo 107 / 119 40% 1 13.10.2026 -
Kevin Rüegg Basel Ativo 101 / 105 40% 2 12.10.2026 -
Tobias Gulliksen Rapid Wien Ativo 128 / 120 40% 1 12.10.2026 Mais informações
Nicolas Cozza VfL Wolfsburg Ativo 121 / 127 40% 2 09.10.2026 -
Samuel Anakwe Remo Stars Ativo 108 / 95 40% 1 09.10.2026 -
Teboho Mabunda SuperSport United Ativo 126 / 113 40% 2 06.10.2026 -
Antonio Galeano Remo Stars Ativo 138 / 122 40% 1 06.10.2026 -
Patrick Berg Bodo/Glimt Ativo 133 / 156 40% 1 03.10.2026 -
Kyle Jurgens Maritzburg United Ativo 94 / 109 40% 1 01.10.2026 -
Oskar Wójcik Werder Bremen Ativo 96 / 112 40% 1 28.09.2026 -
Ludovit Reis Werder Bremen Ativo 133 / 130 40% 2 27.09.2026 -
Nathan-Dylan Saliba Villarreal Ativo 134 / 127 40% 1 22.09.2026 -
Olivier Deman Werder Bremen Ativo 127 / 126 40% 1 18.09.2026 -
Cleiton VfL Wolfsburg Ativo 100 / 118 40% 1 15.09.2026 -
Hadj Mahmoud Lugano Ativo 123 / 119 40% 1 15.09.2026 -
Tim Oermann Bayer Leverkusen Ativo 132 / 128 40% 1 12.09.2026 -
Ewan Henderson Wycombe Wanderers Ativo 100 / 118 40% 1 01.09.2026 -
Bathusi Aubaas Mamelodi Sundowns Ativo 128 / 124 40% 1 26.08.2026 -
Jon Gorenc Stankovič Sturm Graz Ativo 145 / 129 40% 1 26.08.2026 -
Matteo Schablas Austria Wien Ativo 94 / 90 41% 1 03.08.2026 -
Peter Shalulile Mamelodi Sundowns Ativo 127 / 142 40% 1 03.08.2026 -
Luis Vásquez Atletico Bucaramanga Ativo 121 / 107 40% 1 02.08.2026 -
Mauro Casoli Talleres Ativo 89 / 96 40% 1 02.08.2026 -
Brighton Labeau Thun Ativo 111 / 114 40% 1 01.08.2026 -